createdAt,value
2018-11-29T00:00:38.584Z,-0.61
2018-11-29T00:03:10.546Z,-0.57
2018-11-29T00:05:41.031Z,-0.55
2018-11-29T00:08:11.033Z,-0.53
2018-11-29T00:10:41.021Z,-0.51
2018-11-29T00:13:11.024Z,-0.50
2018-11-29T00:15:41.083Z,-0.49
2018-11-29T00:18:11.114Z,-0.46
2018-11-29T00:20:41.192Z,-0.47
2018-11-29T00:23:11.277Z,-0.48
2018-11-29T00:25:41.289Z,-0.46
2018-11-29T00:28:11.319Z,-0.45
2018-11-29T00:30:41.342Z,-0.43
2018-11-29T00:33:11.599Z,-0.44
2018-11-29T00:35:41.642Z,-0.43
2018-11-29T00:38:11.674Z,-0.43
2018-11-29T00:40:41.658Z,-0.42
2018-11-29T00:43:11.649Z,-0.42
2018-11-29T00:45:41.715Z,-0.41
2018-11-29T00:48:11.715Z,-0.40
2018-11-29T00:50:41.774Z,-0.39
2018-11-29T00:53:11.744Z,-0.38
2018-11-29T00:55:41.768Z,-0.39
2018-11-29T00:58:11.728Z,-0.38
2018-11-29T01:00:41.734Z,-0.37
2018-11-29T01:03:14.524Z,-0.39
2018-11-29T01:05:44.536Z,-0.36
2018-11-29T01:08:14.525Z,-0.36
2018-11-29T01:10:44.544Z,-0.35
2018-11-29T01:13:14.580Z,-0.37
2018-11-29T01:15:44.568Z,-0.39
2018-11-29T01:18:14.582Z,-0.39
2018-11-29T01:20:44.588Z,-0.39
2018-11-29T01:23:14.596Z,-0.39
2018-11-29T01:25:44.762Z,-0.41
2018-11-29T01:28:14.741Z,-0.42
2018-11-29T01:30:44.952Z,-0.45
2018-11-29T01:33:14.901Z,-0.49
2018-11-29T01:35:44.910Z,-0.49
2018-11-29T01:38:14.912Z,-0.51
2018-11-29T01:40:44.961Z,-0.52
2018-11-29T01:43:14.970Z,-0.53
2018-11-29T01:45:44.995Z,-0.52
2018-11-29T01:48:14.997Z,-0.53
2018-11-29T01:50:45.276Z,-0.53
2018-11-29T01:53:15.275Z,-0.52
2018-11-29T01:55:45.364Z,-0.52
2018-11-29T01:58:15.345Z,-0.54
2018-11-29T02:00:45.381Z,-0.56
2018-11-29T02:03:15.381Z,-0.57
2018-11-29T02:05:45.539Z,-0.58
2018-11-29T02:08:15.553Z,-0.59
2018-11-29T02:10:50.440Z,-0.63
2018-11-29T02:13:20.707Z,-0.63
2018-11-29T02:15:50.727Z,-0.64
2018-11-29T02:18:20.699Z,-0.64
2018-11-29T02:20:50.677Z,-0.61
2018-11-29T02:23:20.679Z,-0.64
2018-11-29T02:25:50.747Z,-0.69
2018-11-29T02:28:20.751Z,-0.69
2018-11-29T02:30:50.765Z,-0.72
2018-11-29T02:33:20.718Z,-0.70
2018-11-29T02:35:50.735Z,-0.71
2018-11-29T02:38:20.815Z,-0.73
2018-11-29T02:40:50.861Z,-0.71
2018-11-29T02:43:20.813Z,-0.71
2018-11-29T02:45:50.827Z,-0.71
2018-11-29T02:48:20.808Z,-0.72
2018-11-29T02:50:50.831Z,-0.74
2018-11-29T02:53:20.777Z,-0.72
2018-11-29T02:55:50.817Z,-0.71
2018-11-29T02:58:20.826Z,-0.73
2018-11-29T03:00:50.822Z,-0.74
2018-11-29T03:03:20.850Z,-0.76
2018-11-29T03:05:50.943Z,-0.75
2018-11-29T03:08:20.930Z,-0.78
2018-11-29T03:10:51.195Z,-0.78
2018-11-29T03:13:21.123Z,-0.77
2018-11-29T03:15:51.141Z,-0.80
2018-11-29T03:18:21.152Z,-0.78
2018-11-29T03:20:51.136Z,-0.76
2018-11-29T03:23:21.107Z,-0.77
2018-11-29T03:25:51.093Z,-0.74
2018-11-29T03:28:21.104Z,-0.69
2018-11-29T03:30:51.543Z,-0.68
2018-11-29T03:33:21.491Z,-0.67
2018-11-29T03:35:51.515Z,-0.65
2018-11-29T03:38:21.475Z,-0.67
2018-11-29T03:40:51.466Z,-0.66
2018-11-29T03:43:21.455Z,-0.63
2018-11-29T03:45:51.486Z,-0.65
2018-11-29T03:48:21.472Z,-0.65
2018-11-29T03:50:51.474Z,-0.64
2018-11-29T03:53:21.437Z,-0.64
2018-11-29T03:55:51.490Z,-0.63
2018-11-29T03:58:21.454Z,-0.63
2018-11-29T04:00:51.476Z,-0.62
2018-11-29T04:03:21.491Z,-0.63
2018-11-29T04:05:51.547Z,-0.63
2018-11-29T04:08:21.609Z,-0.66
2018-11-29T04:10:51.681Z,-0.66
2018-11-29T04:13:21.627Z,-0.65
2018-11-29T04:15:51.662Z,-0.65
2018-11-29T04:18:21.658Z,-0.65
2018-11-29T04:20:51.742Z,-0.65
2018-11-29T04:23:21.719Z,-0.68
2018-11-29T04:25:51.813Z,-0.69
2018-11-29T04:28:21.808Z,-0.71
2018-11-29T04:30:51.858Z,-0.71
2018-11-29T04:33:21.894Z,-0.70
2018-11-29T04:35:51.932Z,-0.68
2018-11-29T04:38:22.034Z,-0.68
2018-11-29T04:40:52.088Z,-0.68
2018-11-29T04:43:22.141Z,-0.67
2018-11-29T04:46:03.439Z,-0.67
2018-11-29T04:48:33.421Z,-0.66
2018-11-29T04:51:03.450Z,-0.64
2018-11-29T04:53:33.629Z,-0.63
2018-11-29T04:56:03.885Z,-0.63
2018-11-29T04:58:33.915Z,-0.64
2018-11-29T05:01:03.911Z,-0.61
2018-11-29T05:03:33.928Z,-0.61
2018-11-29T05:06:04.722Z,-0.64
2018-11-29T05:08:34.709Z,-0.63
2018-11-29T05:11:05.015Z,-0.63
2018-11-29T05:13:35.009Z,-0.62
2018-11-29T05:16:05.003Z,-0.62
2018-11-29T05:18:35.003Z,-0.59
2018-11-29T05:21:05.018Z,-0.61
2018-11-29T05:23:37.471Z,-0.65
2018-11-29T05:26:07.505Z,-0.66
2018-11-29T05:28:37.531Z,-0.68
2018-11-29T05:31:07.605Z,-0.71
2018-11-29T05:33:37.620Z,-0.71
2018-11-29T05:36:07.677Z,-0.70
2018-11-29T05:38:37.689Z,-0.73
2018-11-29T05:41:07.781Z,-0.75
2018-11-29T05:43:37.821Z,-0.77
2018-11-29T05:46:07.819Z,-0.76
2018-11-29T05:48:37.831Z,-0.77
2018-11-29T05:51:14.291Z,-0.79
2018-11-29T05:53:44.377Z,-0.81
2018-11-29T05:56:14.389Z,-0.84
2018-11-29T05:58:44.382Z,-0.87
2018-11-29T06:01:19.421Z,-0.88
2018-11-29T06:03:49.488Z,-0.87
2018-11-29T06:06:19.463Z,-0.84
2018-11-29T06:08:49.504Z,-0.83
2018-11-29T06:11:19.476Z,-0.85
2018-11-29T06:13:49.734Z,-0.86
2018-11-29T06:16:19.715Z,-0.89
2018-11-29T06:18:49.771Z,-0.94
2018-11-29T06:21:19.763Z,-1.00
2018-11-29T06:23:49.830Z,-1.02
2018-11-29T06:26:20.025Z,-1.04
2018-11-29T06:28:50.290Z,-1.03
2018-11-29T06:31:20.280Z,-1.03
2018-11-29T06:33:50.248Z,-1.03
2018-11-29T06:36:20.305Z,-1.06
2018-11-29T06:38:50.386Z,-1.10
2018-11-29T06:41:20.396Z,-1.13
2018-11-29T06:43:50.429Z,-1.15
2018-11-29T06:46:20.488Z,-1.10
2018-11-29T06:48:50.530Z,-1.08
2018-11-29T06:51:20.559Z,-1.05
2018-11-29T06:53:55.860Z,-1.02
2018-11-29T06:56:25.898Z,-1.01
2018-11-29T06:58:55.969Z,-0.98
2018-11-29T07:01:26.059Z,-0.98
2018-11-29T07:03:56.164Z,-1.04
2018-11-29T07:06:26.196Z,-0.96
2018-11-29T07:08:56.190Z,-0.92
2018-11-29T07:11:26.188Z,-0.86
2018-11-29T07:13:56.308Z,-0.84
2018-11-29T07:16:26.352Z,-0.81
2018-11-29T07:18:56.370Z,-0.71
2018-11-29T07:21:37.660Z,-0.59
2018-11-29T07:24:07.692Z,-0.48
2018-11-29T07:26:37.740Z,-0.47
2018-11-29T07:29:07.828Z,-0.31
2018-11-29T07:31:37.858Z,-0.29
2018-11-29T07:34:07.910Z,-0.34
2018-11-29T07:36:38.048Z,-0.34
2018-11-29T07:39:10.395Z,-0.44
2018-11-29T07:41:40.560Z,-0.47
2018-11-29T07:44:10.994Z,-0.43
2018-11-29T07:46:40.966Z,-0.36
2018-11-29T07:49:11.134Z,-0.08
2018-11-29T07:51:41.145Z,0.07
2018-11-29T07:54:11.502Z,0.02
2018-11-29T07:56:41.509Z,0.03
2018-11-29T07:59:11.465Z,0.09
2018-11-29T08:01:41.485Z,0.12
2018-11-29T08:04:11.525Z,0.12
2018-11-29T08:06:41.531Z,0.16
2018-11-29T08:09:11.591Z,0.31
2018-11-29T08:11:41.695Z,0.62
2018-11-29T08:14:11.705Z,1.09
2018-11-29T08:16:41.763Z,1.22
2018-11-29T08:19:11.814Z,1.41
2018-11-29T08:21:41.857Z,1.23
2018-11-29T08:24:11.965Z,1.00
2018-11-29T08:26:41.986Z,1.05
2018-11-29T08:29:11.981Z,1.35
2018-11-29T08:31:42.035Z,1.78
2018-11-29T08:34:12.083Z,2.08
2018-11-29T08:36:42.086Z,2.38
2018-11-29T08:39:12.159Z,3.10
2018-11-29T08:41:42.782Z,2.33
2018-11-29T08:44:12.939Z,1.72
2018-11-29T08:46:42.967Z,2.24
2018-11-29T08:49:13.087Z,2.11
2018-11-29T08:51:43.129Z,2.10
2018-11-29T08:54:13.165Z,2.58
2018-11-29T08:56:43.221Z,2.61
2018-11-29T08:59:13.311Z,2.83
2018-11-29T09:01:43.301Z,3.13
2018-11-29T09:04:13.360Z,3.55
2018-11-29T09:06:43.394Z,4.01
2018-11-29T09:09:13.437Z,3.87
2018-11-29T09:11:43.429Z,3.44
2018-11-29T09:14:13.532Z,2.95
2018-11-29T09:16:43.553Z,2.88
2018-11-29T09:19:13.553Z,2.73
2018-11-29T09:21:43.705Z,2.75
2018-11-29T09:24:13.711Z,3.20
2018-11-29T09:26:43.663Z,2.65
2018-11-29T09:29:13.882Z,2.90
2018-11-29T09:31:44.119Z,3.22
2018-11-29T09:34:14.109Z,3.73
2018-11-29T09:36:44.101Z,4.40
2018-11-29T09:39:14.173Z,4.46
2018-11-29T09:41:44.407Z,4.43
2018-11-29T09:44:14.490Z,4.30
2018-11-29T09:46:44.595Z,4.00
2018-11-29T09:49:14.615Z,4.22
2018-11-29T09:51:44.681Z,4.56
2018-11-29T09:54:14.715Z,4.46
2018-11-29T09:56:44.771Z,4.12
2018-11-29T09:59:14.839Z,4.17
2018-11-29T10:01:45.354Z,4.68
2018-11-29T10:04:15.361Z,4.98
2018-11-29T10:06:45.377Z,5.05
2018-11-29T10:09:15.393Z,4.41
2018-11-29T10:11:45.557Z,4.21
2018-11-29T10:14:15.529Z,4.48
2018-11-29T10:16:45.539Z,5.23
2018-11-29T10:19:15.608Z,5.60
2018-11-29T10:21:45.689Z,5.60
2018-11-29T10:24:15.694Z,5.71
2018-11-29T10:26:45.764Z,5.67
2018-11-29T10:29:15.843Z,5.92
2018-11-29T10:31:45.905Z,6.14
2018-11-29T10:34:15.901Z,5.87
2018-11-29T10:36:45.939Z,5.25
2018-11-29T10:39:16.013Z,5.13
2018-11-29T10:41:46.040Z,5.07
2018-11-29T10:44:16.157Z,5.20
2018-11-29T10:46:46.197Z,5.89
2018-11-29T10:49:16.307Z,6.49
2018-11-29T10:51:46.403Z,6.72
2018-11-29T10:54:16.883Z,6.22
2018-11-29T10:56:46.493Z,6.01
2018-11-29T10:59:16.569Z,5.88
2018-11-29T11:01:50.755Z,6.05
2018-11-29T11:04:20.893Z,6.18
2018-11-29T11:06:50.929Z,6.21
2018-11-29T11:09:20.937Z,6.00
2018-11-29T11:11:50.951Z,6.62
2018-11-29T11:14:20.995Z,7.51
2018-11-29T11:16:50.993Z,8.38
2018-11-29T11:19:21.095Z,9.19
2018-11-29T11:21:51.055Z,8.29
2018-11-29T11:24:21.095Z,7.03
2018-11-29T11:26:51.157Z,7.18
2018-11-29T11:29:21.182Z,6.93
2018-11-29T11:31:51.195Z,7.01
2018-11-29T11:34:21.235Z,6.72
2018-11-29T11:36:51.314Z,6.94
2018-11-29T11:39:21.468Z,7.42
2018-11-29T11:41:51.755Z,7.80
2018-11-29T11:44:21.819Z,8.51
2018-11-29T11:46:51.821Z,7.93
2018-11-29T11:49:21.843Z,8.23
2018-11-29T11:51:51.870Z,8.57
2018-11-29T11:54:21.908Z,9.12
2018-11-29T11:56:51.961Z,8.83
2018-11-29T11:59:22.040Z,8.74
2018-11-29T12:01:52.101Z,8.87
2018-11-29T12:04:22.560Z,8.04
2018-11-29T12:06:53.122Z,8.19
2018-11-29T12:09:23.210Z,7.97
2018-11-29T12:11:53.254Z,8.25
2018-11-29T12:14:23.279Z,8.17
2018-11-29T12:16:53.421Z,8.12
2018-11-29T12:19:23.552Z,8.18
2018-11-29T12:21:53.602Z,8.59
2018-11-29T12:24:23.740Z,8.54
2018-11-29T12:26:53.783Z,8.37
2018-11-29T12:29:23.878Z,7.37
2018-11-29T12:31:54.077Z,6.44
2018-11-29T12:34:24.129Z,5.98
2018-11-29T12:36:54.124Z,5.73
2018-11-29T12:39:24.305Z,5.71
2018-11-29T12:41:54.380Z,5.71
2018-11-29T12:44:24.417Z,5.50
2018-11-29T12:46:54.476Z,5.34
2018-11-29T12:49:24.469Z,5.37
2018-11-29T12:51:54.557Z,5.40
2018-11-29T12:54:24.579Z,5.42
2018-11-29T12:56:54.703Z,5.17
2018-11-29T12:59:24.760Z,5.05
2018-11-29T13:01:54.899Z,5.09
2018-11-29T13:04:25.640Z,5.06
2018-11-29T13:06:55.874Z,5.03
2018-11-29T13:09:26.068Z,5.03
2018-11-29T13:11:56.110Z,4.99
2018-11-29T13:14:26.177Z,5.05
2018-11-29T13:16:56.181Z,5.06
2018-11-29T13:19:26.276Z,4.90
2018-11-29T13:21:56.478Z,4.92
2018-11-29T13:24:26.590Z,4.84
2018-11-29T13:26:56.652Z,4.87
2018-11-29T13:29:26.676Z,4.85
2018-11-29T13:31:56.681Z,4.80
2018-11-29T13:34:26.718Z,4.73
2018-11-29T13:36:56.748Z,4.68
2018-11-29T13:39:26.986Z,4.58
2018-11-29T13:41:57.051Z,4.55
2018-11-29T13:44:27.146Z,4.52
2018-11-29T13:46:57.151Z,4.53
2018-11-29T13:49:27.148Z,4.52
2018-11-29T13:51:57.185Z,4.48
2018-11-29T13:54:27.245Z,4.41
2018-11-29T13:56:57.530Z,4.41
2018-11-29T13:59:27.334Z,4.44
2018-11-29T14:01:57.792Z,4.46
2018-11-29T14:04:27.897Z,4.41
2018-11-29T14:06:58.091Z,4.29
2018-11-29T14:09:28.197Z,4.20
2018-11-29T14:11:58.403Z,4.10
2018-11-29T14:14:28.425Z,4.03
2018-11-29T14:16:58.661Z,3.98
2018-11-29T14:19:28.825Z,3.88
2018-11-29T14:21:58.917Z,3.81
2018-11-29T14:24:29.002Z,3.78
2018-11-29T14:26:59.131Z,3.71
2018-11-29T14:29:29.185Z,3.65
2018-11-29T14:31:59.397Z,3.59
2018-11-29T14:34:29.511Z,3.52
2018-11-29T14:36:59.570Z,3.49
2018-11-29T14:39:29.645Z,3.42
2018-11-29T14:41:59.676Z,3.37
2018-11-29T14:44:29.742Z,3.32
2018-11-29T14:46:59.775Z,3.27
2018-11-29T14:49:29.827Z,3.23
2018-11-29T14:52:08.107Z,3.19
2018-11-29T14:54:37.195Z,3.14
2018-11-29T14:57:07.266Z,3.11
2018-11-29T14:59:38.997Z,3.06
2018-11-29T15:02:09.085Z,3.01
2018-11-29T15:04:39.097Z,2.96
2018-11-29T15:07:09.100Z,2.89
2018-11-29T15:09:39.218Z,2.83
2018-11-29T15:12:09.233Z,2.72
2018-11-29T15:14:39.251Z,2.66
2018-11-29T15:17:10.013Z,2.65
2018-11-29T15:19:40.203Z,2.60
2018-11-29T15:22:10.194Z,2.55
2018-11-29T15:24:40.225Z,2.53
2018-11-29T15:27:10.817Z,2.53
2018-11-29T15:29:40.816Z,2.54
2018-11-29T15:32:10.846Z,2.57
2018-11-29T15:34:41.652Z,2.53
2018-11-29T15:37:11.596Z,2.51
2018-11-29T15:39:41.656Z,2.50
2018-11-29T15:42:11.653Z,2.48
2018-11-29T15:44:41.766Z,2.46
2018-11-29T15:47:11.800Z,2.44
2018-11-29T15:49:41.789Z,2.44
2018-11-29T15:52:11.881Z,2.35
2018-11-29T15:54:41.923Z,2.32
2018-11-29T15:57:11.933Z,2.32
2018-11-29T15:59:41.965Z,2.29
2018-11-29T16:02:11.994Z,2.28
2018-11-29T16:04:42.125Z,2.31
2018-11-29T16:07:12.151Z,2.24
2018-11-29T16:09:42.192Z,2.20
2018-11-29T16:12:12.260Z,2.21
2018-11-29T16:14:43.541Z,2.21
2018-11-29T16:17:12.304Z,2.18
2018-11-29T16:19:42.323Z,2.13
2018-11-29T16:22:12.265Z,2.11
2018-11-29T16:24:42.329Z,2.03
2018-11-29T16:27:12.369Z,1.98
2018-11-29T16:29:42.413Z,1.98
2018-11-29T16:32:13.000Z,2.01
2018-11-29T16:34:43.024Z,2.02
2018-11-29T16:37:12.994Z,2.02
2018-11-29T16:39:43.270Z,2.01
2018-11-29T16:42:13.282Z,2.06
2018-11-29T16:44:43.290Z,2.05
2018-11-29T16:47:13.236Z,2.08
2018-11-29T16:49:43.267Z,2.09
2018-11-29T16:52:13.254Z,2.09
2018-11-29T16:54:43.203Z,2.11
2018-11-29T16:57:13.210Z,2.11
2018-11-29T16:59:43.366Z,2.11
2018-11-29T17:02:13.340Z,2.16
2018-11-29T17:04:43.350Z,2.16
2018-11-29T17:07:13.369Z,2.13
2018-11-29T17:09:43.387Z,2.13
2018-11-29T17:12:13.456Z,2.15
2018-11-29T17:14:43.544Z,2.15
2018-11-29T17:17:13.592Z,2.16
2018-11-29T17:19:43.667Z,2.15
2018-11-29T17:22:13.693Z,2.14
2018-11-29T17:24:43.793Z,2.13
2018-11-29T17:27:13.803Z,2.15
2018-11-29T17:29:43.903Z,2.13
2018-11-29T17:32:13.907Z,2.14
2018-11-29T17:34:43.956Z,2.15
2018-11-29T17:37:13.997Z,2.14
2018-11-29T17:39:44.099Z,2.13
2018-11-29T17:42:14.106Z,2.13
2018-11-29T17:44:44.111Z,2.10
2018-11-29T17:47:14.228Z,2.10
2018-11-29T17:49:44.304Z,2.08
2018-11-29T17:52:14.424Z,2.08
2018-11-29T17:54:44.857Z,2.06
2018-11-29T17:57:14.911Z,2.04
2018-11-29T17:59:44.971Z,2.02
2018-11-29T18:02:14.985Z,2.01
2018-11-29T18:04:46.034Z,2.02
2018-11-29T18:07:16.219Z,2.05
2018-11-29T18:09:46.301Z,2.14
2018-11-29T18:12:16.331Z,2.05
2018-11-29T18:14:46.416Z,2.02
2018-11-29T18:17:16.442Z,2.00
2018-11-29T18:19:46.409Z,1.98
2018-11-29T18:22:16.745Z,1.98
2018-11-29T18:24:46.949Z,1.98
2018-11-29T18:27:17.134Z,1.98
2018-11-29T18:29:47.561Z,1.94
2018-11-29T18:32:17.579Z,1.89
2018-11-29T18:34:47.743Z,1.87
2018-11-29T18:37:17.749Z,1.85
2018-11-29T18:39:47.888Z,1.83
2018-11-29T18:42:17.914Z,1.81
2018-11-29T18:44:47.989Z,1.79
2018-11-29T18:47:18.216Z,1.78
2018-11-29T18:49:48.314Z,1.79
2018-11-29T18:52:18.338Z,1.79
2018-11-29T18:54:48.382Z,1.79
2018-11-29T18:57:18.387Z,1.80
2018-11-29T18:59:48.562Z,1.80
2018-11-29T19:02:18.575Z,1.82
2018-11-29T19:04:48.742Z,1.84
2018-11-29T19:07:19.608Z,1.87
2018-11-29T19:09:49.601Z,1.87
2018-11-29T19:12:19.642Z,1.89
2018-11-29T19:14:49.664Z,1.94
2018-11-29T19:17:24.993Z,1.99
2018-11-29T19:19:49.828Z,2.03
2018-11-29T19:22:19.865Z,2.04
2018-11-29T19:24:49.936Z,2.05
2018-11-29T19:27:20.252Z,2.06
2018-11-29T19:29:50.416Z,2.08
2018-11-29T19:32:20.426Z,2.11
2018-11-29T19:34:50.451Z,2.11
2018-11-29T19:37:20.514Z,2.08
2018-11-29T19:39:50.535Z,2.06
2018-11-29T19:42:20.652Z,2.05
2018-11-29T19:44:50.839Z,2.05
2018-11-29T19:47:20.913Z,2.06
2018-11-29T19:49:51.397Z,2.05
2018-11-29T19:52:21.481Z,2.07
2018-11-29T19:54:51.798Z,2.08
2018-11-29T19:57:21.891Z,2.11
2018-11-29T19:59:51.964Z,2.12
2018-11-29T20:02:21.991Z,2.12
2018-11-29T20:04:51.988Z,2.12
2018-11-29T20:07:23.024Z,2.08
2018-11-29T20:09:53.504Z,2.03
2018-11-29T20:12:23.591Z,2.02
2018-11-29T20:14:53.616Z,2.04
2018-11-29T20:17:23.663Z,2.04
2018-11-29T20:19:53.752Z,2.05
2018-11-29T20:22:23.767Z,2.04
2018-11-29T20:24:54.200Z,2.01
2018-11-29T20:27:24.254Z,1.98
2018-11-29T20:29:54.431Z,1.97
2018-11-29T20:32:24.488Z,1.94
2018-11-29T20:34:54.505Z,1.94
2018-11-29T20:37:24.510Z,1.91
2018-11-29T20:39:54.586Z,1.89
2018-11-29T20:42:24.582Z,1.88
2018-11-29T20:44:54.699Z,1.85
2018-11-29T20:47:25.031Z,1.85
2018-11-29T20:49:55.019Z,1.83
2018-11-29T20:52:25.175Z,1.82
2018-11-29T20:54:55.270Z,1.79
2018-11-29T20:57:25.265Z,1.77
2018-11-29T20:59:55.308Z,1.77
2018-11-29T21:02:25.305Z,1.77
2018-11-29T21:04:55.364Z,1.78
2018-11-29T21:07:25.457Z,1.75
2018-11-29T21:09:55.553Z,1.75
2018-11-29T21:12:25.620Z,1.73
2018-11-29T21:14:55.735Z,1.70
2018-11-29T21:17:25.753Z,1.69
2018-11-29T21:19:55.837Z,1.68
2018-11-29T21:22:25.908Z,1.67
2018-11-29T21:24:55.955Z,1.64
2018-11-29T21:27:26.013Z,1.61
2018-11-29T21:29:56.088Z,1.58
2018-11-29T21:32:26.078Z,1.56
2018-11-29T21:34:56.113Z,1.53
2018-11-29T21:37:26.150Z,1.52
2018-11-29T21:39:56.295Z,1.51
2018-11-29T21:42:26.301Z,1.51
2018-11-29T21:44:56.359Z,1.50
2018-11-29T21:47:26.463Z,1.50
2018-11-29T21:49:56.494Z,1.50
2018-11-29T21:52:26.505Z,1.48
2018-11-29T21:54:56.860Z,1.45
2018-11-29T21:57:27.480Z,1.45
2018-11-29T21:59:57.891Z,1.44
2018-11-29T22:02:28.282Z,1.42
2018-11-29T22:05:00.747Z,1.39
2018-11-29T22:07:31.068Z,1.35
2018-11-29T22:10:01.527Z,1.34
2018-11-29T22:12:31.862Z,1.31
2018-11-29T22:15:02.242Z,1.33
2018-11-29T22:17:32.552Z,1.34
2018-11-29T22:20:02.880Z,1.32
2018-11-29T22:22:33.169Z,1.30
2018-11-29T22:25:03.548Z,1.25
2018-11-29T22:27:33.917Z,1.24
2018-11-29T22:30:04.376Z,1.24
2018-11-29T22:32:34.688Z,1.25
2018-11-29T22:35:05.118Z,1.23
2018-11-29T22:37:35.409Z,1.21
2018-11-29T22:40:05.800Z,1.19
2018-11-29T22:42:36.914Z,1.18
2018-11-29T22:45:09.770Z,1.17
2018-11-29T22:47:40.544Z,1.13
2018-11-29T22:50:10.586Z,1.09
2018-11-29T22:52:40.590Z,1.07
2018-11-29T22:55:10.660Z,1.06
2018-11-29T22:57:40.762Z,1.03
2018-11-29T23:00:14.625Z,1.02
2018-11-29T23:02:44.764Z,1.01
2018-11-29T23:05:16.216Z,0.98
2018-11-29T23:07:46.471Z,0.97
2018-11-29T23:10:16.512Z,0.96
2018-11-29T23:12:46.688Z,0.95
2018-11-29T23:15:16.703Z,0.91
2018-11-29T23:17:46.802Z,0.88
2018-11-29T23:20:16.842Z,0.86
2018-11-29T23:22:46.896Z,0.86
2018-11-29T23:25:16.927Z,0.85
2018-11-29T23:27:47.056Z,0.84
2018-11-29T23:30:17.702Z,0.84
2018-11-29T23:32:47.835Z,0.83
2018-11-29T23:35:17.872Z,0.83
2018-11-29T23:37:47.942Z,0.82
2018-11-29T23:40:18.485Z,0.80
2018-11-29T23:42:48.528Z,0.80
2018-11-29T23:45:18.641Z,0.79
2018-11-29T23:47:48.733Z,0.76
2018-11-29T23:50:19.327Z,0.74
2018-11-29T23:52:51.343Z,0.70
2018-11-29T23:55:23.057Z,0.69
2018-11-29T23:57:53.054Z,0.70
